• Join FlightAware (Why Join?)
  • Login
  • US Flag 
06:31AM EDT


 

Airport Tracker/Info


-or-


 

Live Flight TrackerFlight Track Log ✈ KAP5 ✈ 23-Jun-2013 ✈ KBOS - KALB

Flight Track Log - Related Links

Times and Time Zones

All times are in EDT time to prevent confusion due to time zone crossing. See the KAP5 flight status page for this flight to view local times or setup timezone preferences in your user account.

Time Position Orientation Groundspeed Altitude Reporting Facility
EDT Latitude Longitude Course Direction KTS MPH feet Rate Location/Type
09:26AM 42.3667 -71.0167 236° Southwest 114 131 400  Level KA90
09:27AM 42.3500 -71.0500 236° Southwest 115 132 1,500 1,080 Climbing KA90
09:28AM 42.3500 -71.1000 270° West 113 130 2,700 1,020 Climbing KA90
09:29AM 42.3333 -71.1333 236° Southwest 115 132 3,700 960 Climbing KA90
09:30AM 42.3333 -71.1833 270° West 124 143 4,800 900 Climbing KA90
09:31AM 42.3333 -71.2333 270° West 121 139 5,500 600 Climbing KA90
09:32AM 42.3333 -71.2667 270° West 121 139 6,000 600 Climbing KA90
09:33AM 42.3167 -71.3167 246° West 118 136 6,700 600 Climbing KA90
09:34AM 42.3167 -71.3667 270° West 115 132 7,300 540 Climbing KA90
09:35AM 42.3167 -71.4000 270° West 115 132 7,800 300 Climbing KA90
09:36AM 42.3044 -71.4575 254° West 123 142 8,000 60 Climbing Boston Center
09:37AM 42.2967 -71.5250 261° West 154 177 8,000  Level Boston Center
09:38AM 42.2908 -71.5842 262° West 158 182 8,000  Level Boston Center
09:39AM 42.2850 -71.6431 262° West 158 182 8,000  Level Boston Center
09:40AM 42.2792 -71.6992 262° West 157 181 8,000  Level Boston Center
09:41AM 42.2733 -71.7583 262° West 156 180 8,000  Level Boston Center
09:42AM 42.2653 -71.8228 260° West 159 183 8,000  Level Boston Center
09:43AM 42.2678 -71.8789 273° West 156 180 8,000  Level Boston Center
09:44AM 42.2700 -71.9350 273° West 148 170 8,000  Level Boston Center
09:45AM 42.2703 -71.9883 270° West 144 166 8,000  Level Boston Center
09:47AM 42.2725 -72.0444 273° West 145 167 8,000  Level Boston Center
09:47AM 42.2789 -72.0922 280° West 144 166 8,000  Level Boston Center
09:49AM 42.2981 -72.1650 290° West 145 167 8,000  Level Boston Center
09:50AM 42.3125 -72.2069 295° West 145 167 8,000  Level Boston Center
09:51AM 42.3272 -72.2631 290° West 145 167 8,000  Level Boston Center
09:52AM 42.3378 -72.3053 289° West 150 173 8,000  Level Boston Center
09:53AM 42.3544 -72.3642 291° West 145 167 8,000  Level Boston Center
09:54AM 42.3692 -72.4175 291° West 145 167 8,000  Level Boston Center
09:55AM 42.3817 -72.4625 291° West 144 166 8,000  Level Boston Center
09:56AM 42.3983 -72.5244 290° West 145 167 8,000  Level Boston Center
09:57AM 42.4128 -72.5694 294° West 145 167 8,000  Level Boston Center
09:58AM 42.4272 -72.6258 289° West 146 168 8,000  Level Boston Center
09:59AM 42.4419 -72.6736 293° West 147 169 8,000  Level Boston Center
10:00AM 42.4542 -72.7158 291° West 151 174 8,000  Level Boston Center
10:00AM 42.4644 -72.7608 287° West 148 170 8,000  Level Boston Center
10:01AM 42.4811 -72.8117 294° West 145 167 8,000  Level Boston Center
10:02AM 42.4956 -72.8597 292° West 144 166 8,000  Level Boston Center
10:03AM 42.5078 -72.9075 289° West 141 162 8,000  Level Boston Center
10:04AM 42.5200 -72.9611 287° West 146 168 8,000  Level Boston Center
10:05AM 42.5364 -73.0092 295° West 145 167 8,000  Level Boston Center
10:06AM 42.5508 -73.0658 289° West 145 167 8,000  Level Boston Center
10:07AM 42.5631 -73.1194 287° West 144 166 8,000 -300 Level Boston Center
10:08AM 42.5794 -73.1761 291° West 157 181 7,500 -600 Descending Boston Center
10:09AM 42.5956 -73.2325 291° West 170 196 6,800 -660 Descending Boston Center
10:10AM 42.6119 -73.2978 289° West 175 201 6,200 -720 Descending Boston Center
10:11AM 42.6281 -73.3517 292° West 177 204 5,500 -660 Descending Boston Center
10:13AM 42.6506 -73.4167 295° West 175 201 4,900 -660 Descending Boston Center
10:14AM 42.6708 -73.4792 294° West 172 198 4,200 -660 Descending Boston Center
10:15AM 42.6931 -73.5389 297° West 173 199 3,600 -540 Descending Boston Center
10:16AM 42.7175 -73.5931 302° West 169 194 3,200 -600 Descending Boston Center
10:17AM 42.7419 -73.6528 299° West 173 199 2,400 -900 Descending Boston Center
10:18AM 42.7517 -73.7125 283° West 181 208 1,500 -900 Descending Boston Center
10:18AM 42.7489 -73.7689 266° West 158 182 700 -900 Descending Boston Center
10:20AM 42.7333 -73.8000 288° West  Level FlightAware Approximate
10:27AM 42.7491 -73.8020 288° West  Level Estimated
10:28AM 42.7491 -73.8020 288° West  Level Estimated
10:29AM 42.7491 -73.8020 288° West  Level Estimated